Time;durP1;ratioP1;P1;durP2;ratioP2;P2;SDS_P1;SDS_P2;PMS_P1;PMS_P2;Temp;Humidity;BMP_temperature;BMP_pressure;BME280_temperature;BME280_humidity;BME280_pressure;Samples;Min_cycle;Max_cycle;Signal;HPM_P1;HPM_P2
2023/07/20 00:01:16;;;;;;;3.40;3.10;;;22.60;99.90;;;;;;5077580;28;20678;-74
2023/07/20 00:03:41;;;;;;;3.37;3.17;;;22.60;99.90;;;;;;5077201;28;20240;-76
2023/07/20 00:06:08;;;;;;;4.73;3.30;;;22.60;99.90;;;;;;5078040;28;20175;-74
2023/07/20 00:08:33;;;;;;;3.40;3.20;;;22.60;99.90;;;;;;5084556;28;20218;-76
2023/07/20 00:10:59;;;;;;;3.33;3.13;;;22.50;99.90;;;;;;5098102;28;20198;-76
2023/07/20 00:13:25;;;;;;;3.93;3.53;;;22.40;99.90;;;;;;5077204;28;20194;-78
2023/07/20 00:15:51;;;;;;;3.70;2.97;;;22.40;99.90;;;;;;5077734;28;20175;-79
2023/07/20 00:18:17;;;;;;;3.60;3.10;;;22.40;99.90;;;;;;5079964;28;20214;-76
2023/07/20 00:20:43;;;;;;;3.47;3.27;;;22.30;99.90;;;;;;5078771;28;20171;-78
2023/07/20 00:23:08;;;;;;;4.83;3.10;;;22.30;99.90;;;;;;5078118;28;20182;-78
2023/07/20 00:25:35;;;;;;;3.90;3.40;;;22.30;99.90;;;;;;5077661;28;20174;-76
2023/07/20 00:28:01;;;;;;;3.40;3.13;;;22.20;99.90;;;;;;5078360;28;20179;-76
2023/07/20 00:30:27;;;;;;;3.20;3.00;;;22.10;99.90;;;;;;5070637;28;20178;-77
2023/07/20 00:32:52;;;;;;;4.97;3.20;;;22.10;99.90;;;;;;5078461;28;20582;-76
2023/07/20 00:35:18;;;;;;;5.83;3.70;;;22.10;99.90;;;;;;5077670;28;20191;-79
2023/07/20 00:37:44;;;;;;;5.37;3.20;;;22.00;99.90;;;;;;5077952;28;20198;-76
2023/07/20 00:40:10;;;;;;;4.07;3.70;;;22.00;99.90;;;;;;5077913;28;20163;-78
2023/07/20 00:42:36;;;;;;;3.67;3.37;;;21.90;99.90;;;;;;5078909;28;20642;-76
2023/07/20 00:45:02;;;;;;;3.30;3.10;;;21.90;99.90;;;;;;5090985;28;20647;-77
2023/07/20 00:47:28;;;;;;;4.40;3.23;;;21.90;99.90;;;;;;5077360;28;20248;-75
2023/07/20 00:49:54;;;;;;;3.60;3.20;;;21.90;99.90;;;;;;5077698;28;20519;-75
2023/07/20 00:52:25;;;;;;;3.30;3.00;;;21.80;99.90;;;;;;5077602;28;20175;-75
2023/07/20 00:54:52;;;;;;;3.17;2.97;;;21.80;99.90;;;;;;5077198;28;20264;-77
2023/07/20 00:57:19;;;;;;;3.77;3.47;;;21.80;99.90;;;;;;5077154;28;20592;-78
2023/07/20 00:59:45;;;;;;;3.80;3.50;;;21.90;99.90;;;;;;5077663;28;20183;-77
2023/07/20 01:02:11;;;;;;;3.47;3.27;;;21.80;99.90;;;;;;5077851;28;20199;-78
2023/07/20 01:04:37;;;;;;;3.37;3.07;;;21.80;99.90;;;;;;5077369;28;20186;-76
2023/07/20 01:07:43;;;;;;;4.43;3.23;;;21.80;99.90;;;;;;5076372;28;20582;-76
2023/07/20 01:10:33;;;;;;;4.63;3.17;;;21.80;99.90;;;;;;5041933;28;20192;-76
2023/07/20 01:13:01;;;;;;;3.90;3.07;;;21.80;99.90;;;;;;5050103;28;20307;-76
2023/07/20 01:15:27;;;;;;;3.27;3.07;;;21.80;99.90;;;;;;5035871;28;20181;-76
2023/07/20 01:17:53;;;;;;;3.50;3.30;;;21.90;99.90;;;;;;5022811;28;20212;-76
2023/07/20 01:20:21;;;;;;;3.37;3.10;;;21.90;99.90;;;;;;5040779;28;20180;-77
2023/07/20 01:23:02;;;;;;;3.50;3.30;;;21.90;99.90;;;;;;5035250;28;20255;-74
2023/07/20 01:26:01;;;;;;;3.57;3.27;;;21.90;99.90;;;;;;5034691;28;21347;-74
2023/07/20 01:28:56;;;;;;;3.27;3.00;;;21.90;99.90;;;;;;5036883;28;20184;-75
2023/07/20 01:31:25;;;;;;;3.73;3.30;;;21.80;99.90;;;;;;5049924;28;20184;-77
2023/07/20 01:33:57;;;;;;;3.43;3.23;;;21.80;99.90;;;;;;5038977;28;20188;-76
2023/07/20 01:36:25;;;;;;;3.90;3.50;;;21.80;99.90;;;;;;5034748;28;20660;-76
2023/07/20 01:38:54;;;;;;;4.03;3.73;;;21.80;99.90;;;;;;5033118;28;20235;-76
2023/07/20 01:41:20;;;;;;;3.47;3.17;;;21.80;99.90;;;;;;5034652;28;20180;-77
2023/07/20 01:43:46;;;;;;;3.33;3.03;;;21.80;99.90;;;;;;5034775;28;20184;-78
2023/07/20 01:46:12;;;;;;;3.57;3.27;;;21.80;99.90;;;;;;5064434;28;20207;-76
2023/07/20 01:48:38;;;;;;;3.87;3.10;;;21.90;99.90;;;;;;5075737;28;20175;-76
2023/07/20 01:51:08;;;;;;;3.77;3.40;;;21.90;99.90;;;;;;5077110;28;20175;-76
2023/07/20 01:53:34;;;;;;;3.20;2.90;;;21.90;99.90;;;;;;5075312;28;20271;-76
2023/07/20 01:55:59;;;;;;;3.23;3.03;;;21.90;99.90;;;;;;5074921;28;20247;-75
2023/07/20 01:58:25;;;;;;;3.93;3.57;;;21.90;99.90;;;;;;5076169;28;20438;-76
2023/07/20 02:00:51;;;;;;;4.27;3.30;;;21.80;99.90;;;;;;5081627;28;20174;-76
2023/07/20 02:03:17;;;;;;;3.80;3.50;;;21.80;99.90;;;;;;5097174;28;20178;-77
2023/07/20 02:05:43;;;;;;;3.60;3.30;;;21.80;99.90;;;;;;5080142;28;20175;-76
2023/07/20 02:08:09;;;;;;;3.67;3.37;;;21.70;99.90;;;;;;5089310;28;20261;-77
2023/07/20 02:10:35;;;;;;;4.60;3.50;;;21.70;99.90;;;;;;5076761;28;20172;-77
2023/07/20 02:13:01;;;;;;;3.30;3.10;;;21.60;99.90;;;;;;5075997;28;20194;-77
2023/07/20 02:15:27;;;;;;;3.50;3.20;;;21.60;99.90;;;;;;5075900;28;20194;-76
2023/07/20 02:17:53;;;;;;;3.70;3.40;;;21.50;99.90;;;;;;5075865;28;20261;-76
2023/07/20 02:20:19;;;;;;;3.17;2.97;;;21.50;99.90;;;;;;5076212;28;20183;-77
2023/07/20 02:22:45;;;;;;;3.47;3.27;;;21.60;99.90;;;;;;5076205;28;20191;-77
2023/07/20 02:25:11;;;;;;;3.80;3.50;;;21.60;99.90;;;;;;5076345;28;20171;-77
2023/07/20 02:27:38;;;;;;;3.90;3.60;;;21.60;99.90;;;;;;5076176;28;20179;-77
2023/07/20 02:30:04;;;;;;;3.70;3.40;;;21.70;99.90;;;;;;5075054;28;20681;-77
2023/07/20 02:32:31;;;;;;;3.47;3.17;;;21.60;99.90;;;;;;5075902;28;20168;-77
2023/07/20 02:34:58;;;;;;;3.70;3.40;;;21.60;99.90;;;;;;5074531;28;20283;-76
2023/07/20 02:37:24;;;;;;;3.87;3.57;;;21.60;99.90;;;;;;5078239;28;20671;-77
2023/07/20 02:39:50;;;;;;;3.30;3.10;;;21.50;99.90;;;;;;5084603;28;20167;-76
2023/07/20 02:42:16;;;;;;;3.57;3.27;;;21.60;99.90;;;;;;5076417;28;20182;-80
2023/07/20 02:44:41;;;;;;;8.33;3.10;;;21.60;99.90;;;;;;5075329;28;20584;-79
2023/07/20 02:47:07;;;;;;;3.53;2.90;;;21.60;99.90;;;;;;5075954;28;20171;-77
2023/07/20 02:49:33;;;;;;;3.20;2.90;;;21.70;99.90;;;;;;5078045;28;20178;-77
2023/07/20 02:51:59;;;;;;;3.00;2.80;;;21.70;99.90;;;;;;5081116;28;20175;-76
2023/07/20 02:54:24;;;;;;;3.20;3.00;;;21.80;99.90;;;;;;5081414;28;20182;-77
2023/07/20 02:56:50;;;;;;;3.00;2.73;;;21.80;99.90;;;;;;5086855;28;20226;-77
2023/07/20 02:59:16;;;;;;;3.27;2.90;;;21.70;99.90;;;;;;5090644;28;20220;-76
2023/07/20 03:01:44;;;;;;;2.90;2.70;;;21.70;99.90;;;;;;5092155;28;20178;-76
2023/07/20 03:04:10;;;;;;;3.77;3.03;;;21.70;99.90;;;;;;5084673;28;20212;-76
2023/07/20 03:06:37;;;;;;;3.33;3.13;;;21.70;99.90;;;;;;5080820;28;20167;-76
2023/07/20 03:09:04;;;;;;;3.00;2.80;;;21.60;99.90;;;;;;5093288;28;20167;-77
2023/07/20 03:11:32;;;;;;;3.03;2.67;;;21.70;99.90;;;;;;5084682;28;20175;-77
2023/07/20 03:13:59;;;;;;;3.10;2.90;;;21.60;99.90;;;;;;5082330;28;20206;-75
2023/07/20 03:16:25;;;;;;;2.90;2.70;;;21.70;99.90;;;;;;5080953;28;20236;-75
2023/07/20 03:18:51;;;;;;;3.07;2.87;;;21.70;99.90;;;;;;5080348;28;20203;-77
2023/07/20 03:21:16;;;;;;;2.60;2.50;;;21.60;99.90;;;;;;5081113;28;20249;-76
2023/07/20 03:23:42;;;;;;;3.10;2.80;;;21.60;99.90;;;;;;5080505;28;20258;-78
2023/07/20 03:26:08;;;;;;;2.80;2.60;;;21.60;99.90;;;;;;5080902;28;20175;-76
2023/07/20 03:28:38;;;;;;;2.60;2.50;;;21.60;99.90;;;;;;5081598;28;20570;-78
2023/07/20 03:31:04;;;;;;;3.13;2.87;;;21.70;99.90;;;;;;5086905;28;20646;-77
2023/07/20 03:33:31;;;;;;;2.97;2.77;;;21.70;99.90;;;;;;5094680;28;20206;-79
2023/07/20 03:35:57;;;;;;;2.87;2.70;;;21.70;99.90;;;;;;5084940;28;20187;-77
2023/07/20 03:38:24;;;;;;;3.00;2.77;;;21.70;99.90;;;;;;5086056;28;20206;-76
2023/07/20 03:40:54;;;;;;;2.80;2.60;;;21.70;99.90;;;;;;5084468;28;20175;-77
2023/07/20 03:43:21;;;;;;;2.70;2.60;;;21.70;99.90;;;;;;5084459;28;20513;-77
2023/07/20 03:45:48;;;;;;;3.30;3.00;;;21.70;99.90;;;;;;5084326;28;20242;-73
2023/07/20 03:48:18;;;;;;;2.77;2.50;;;21.70;99.90;;;;;;5081445;28;20164;-74
2023/07/20 03:50:48;;;;;;;2.70;2.50;;;21.70;99.90;;;;;;5079080;28;20213;-75
2023/07/20 03:53:15;;;;;;;3.03;2.50;;;21.70;99.90;;;;;;5085521;28;20194;-77
2023/07/20 03:55:41;;;;;;;3.07;2.83;;;21.80;99.90;;;;;;5096162;28;20223;-79
2023/07/20 03:58:08;;;;;;;2.90;2.70;;;21.80;99.90;;;;;;5078329;28;20221;-78
2023/07/20 04:00:34;;;;;;;2.87;2.67;;;21.90;99.90;;;;;;5077331;28;20175;-75
2023/07/20 04:03:00;;;;;;;2.80;2.60;;;21.90;99.90;;;;;;5077388;28;20244;-75
2023/07/20 04:05:26;;;;;;;3.10;2.90;;;21.90;99.90;;;;;;5076813;28;20175;-78
2023/07/20 04:07:52;;;;;;;2.60;2.40;;;22.00;99.90;;;;;;5077300;28;20650;-76
2023/07/20 04:10:19;;;;;;;2.70;2.50;;;22.00;99.90;;;;;;5076212;28;20171;-76
2023/07/20 04:12:46;;;;;;;2.40;2.30;;;22.00;99.90;;;;;;5095200;28;20171;-76
2023/07/20 04:15:13;;;;;;;2.53;2.33;;;22.00;99.90;;;;;;5088743;28;20627;-76
2023/07/20 04:17:40;;;;;;;2.63;2.53;;;21.90;99.90;;;;;;5077081;28;20212;-77
2023/07/20 04:20:07;;;;;;;2.90;2.60;;;21.90;99.90;;;;;;5075274;28;20209;-79
2023/07/20 04:22:32;;;;;;;2.83;2.63;;;21.80;99.90;;;;;;5077207;28;20170;-77
2023/07/20 04:24:58;;;;;;;3.47;2.80;;;21.90;99.90;;;;;;5077539;28;20167;-76
2023/07/20 04:27:24;;;;;;;2.67;2.47;;;21.90;99.90;;;;;;5077087;28;20193;-79
2023/07/20 04:29:49;;;;;;;2.53;2.43;;;21.90;99.90;;;;;;5076511;28;20186;-78
2023/07/20 04:32:15;;;;;;;2.80;2.60;;;21.90;99.90;;;;;;5076624;28;20224;-77
2023/07/20 04:34:41;;;;;;;3.30;2.80;;;21.90;99.90;;;;;;5081650;28;20181;-76
2023/07/20 04:37:07;;;;;;;3.23;3.00;;;21.80;99.90;;;;;;5086907;28;20179;-77
2023/07/20 04:39:33;;;;;;;2.83;2.60;;;21.80;99.90;;;;;;5077373;28;20183;-76
2023/07/20 04:41:59;;;;;;;4.17;2.90;;;21.80;99.90;;;;;;5077569;28;20305;-76
2023/07/20 04:44:24;;;;;;;3.33;3.13;;;21.80;99.90;;;;;;5077678;28;20168;-77
2023/07/20 04:46:50;;;;;;;3.13;2.90;;;21.80;99.90;;;;;;5080772;28;20171;-76
2023/07/20 04:49:16;;;;;;;3.47;3.17;;;21.70;99.90;;;;;;5082294;28;20173;-76
2023/07/20 04:51:42;;;;;;;2.97;2.77;;;21.70;99.90;;;;;;5076362;28;20246;-77
2023/07/20 04:54:09;;;;;;;3.33;3.13;;;21.60;99.90;;;;;;5083555;28;20178;-77
2023/07/20 04:56:34;;;;;;;3.23;2.60;;;21.60;99.90;;;;;;5082371;28;20225;-77
2023/07/20 04:59:00;;;;;;;2.77;2.57;;;21.60;99.90;;;;;;5077628;28;20285;-76
2023/07/20 05:01:29;;;;;;;2.50;2.40;;;21.70;99.90;;;;;;5076021;28;20568;-76
2023/07/20 05:03:55;;;;;;;2.70;2.53;;;21.70;99.90;;;;;;5077451;28;20171;-76
2023/07/20 05:06:21;;;;;;;2.57;2.47;;;21.80;99.90;;;;;;5077192;28;20702;-74
2023/07/20 05:08:46;;;;;;;3.17;2.90;;;21.80;99.90;;;;;;5077326;28;20254;-76
2023/07/20 05:11:12;;;;;;;3.20;2.70;;;21.90;99.90;;;;;;5078199;28;20198;-76
2023/07/20 05:13:38;;;;;;;3.00;2.80;;;21.90;99.90;;;;;;5075617;28;20191;-75
2023/07/20 05:16:04;;;;;;;3.70;2.70;;;22.00;99.90;;;;;;5076129;28;20694;-76
2023/07/20 05:18:30;;;;;;;2.80;2.60;;;22.00;99.90;;;;;;5076670;28;20207;-76
2023/07/20 05:20:56;;;;;;;2.73;2.53;;;22.10;99.90;;;;;;5076242;28;20508;-77
2023/07/20 05:23:22;;;;;;;2.80;2.70;;;22.10;99.90;;;;;;5075624;28;20182;-78
2023/07/20 05:25:57;;;;;;;2.80;2.63;;;22.20;99.90;;;;;;5076007;28;20634;-76
2023/07/20 05:28:24;;;;;;;3.17;2.50;;;22.30;99.90;;;;;;5075570;28;20167;-77
2023/07/20 05:30:51;;;;;;;2.93;2.73;;;22.30;99.80;;;;;;5074812;28;20638;-76
2023/07/20 05:33:18;;;;;;;3.03;2.73;;;22.40;99.70;;;;;;5075761;28;20567;-76
2023/07/20 05:35:44;;;;;;;2.83;2.63;;;22.40;99.90;;;;;;5074934;28;20172;-77
2023/07/20 05:38:09;;;;;;;2.87;2.63;;;22.40;99.70;;;;;;5074675;28;20260;-77
2023/07/20 05:40:40;;;;;;;2.67;2.57;;;22.40;99.70;;;;;;5073342;28;20186;-75
2023/07/20 05:43:06;;;;;;;2.90;2.53;;;22.40;99.80;;;;;;5074198;28;20258;-73
2023/07/20 05:45:32;;;;;;;2.80;2.60;;;22.40;99.80;;;;;;5080893;28;20175;-77
2023/07/20 05:47:58;;;;;;;2.83;2.70;;;22.40;99.90;;;;;;5097073;28;20258;-78
2023/07/20 05:50:23;;;;;;;4.30;3.10;;;22.40;99.90;;;;;;5079104;28;20271;-77
2023/07/20 05:52:53;;;;;;;3.17;2.83;;;22.50;99.60;;;;;;5074231;28;20540;-77
2023/07/20 05:55:19;;;;;;;3.30;3.00;;;22.50;99.50;;;;;;5074725;28;20223;-77
2023/07/20 05:57:46;;;;;;;3.00;2.80;;;22.60;99.40;;;;;;5074621;28;20285;-78
2023/07/20 06:00:12;;;;;;;3.43;2.97;;;22.70;99.50;;;;;;5075434;28;20179;-76
2023/07/20 06:02:40;;;;;;;3.13;2.73;;;22.80;99.30;;;;;;5080632;28;20554;-77
2023/07/20 06:05:10;;;;;;;3.07;2.67;;;22.80;99.30;;;;;;5076115;28;20179;-77
2023/07/20 06:07:39;;;;;;;2.63;2.43;;;22.90;99.20;;;;;;5058864;28;20219;-78
2023/07/20 06:10:06;;;;;;;2.73;2.53;;;23.00;99.30;;;;;;5074955;28;20217;-78
2023/07/20 06:12:33;;;;;;;3.30;3.10;;;23.00;99.20;;;;;;5078130;28;20205;-77
2023/07/20 06:15:03;;;;;;;2.87;2.67;;;23.10;99.40;;;;;;5087551;28;20179;-76
2023/07/20 06:17:31;;;;;;;3.93;2.90;;;23.20;99.30;;;;;;5082917;28;20219;-76
2023/07/20 06:19:57;;;;;;;3.20;3.00;;;23.10;99.60;;;;;;5082225;28;20646;-77
2023/07/20 06:22:22;;;;;;;2.70;2.50;;;23.10;99.60;;;;;;5077509;28;20177;-77
2023/07/20 06:24:48;;;;;;;3.00;2.80;;;23.20;99.60;;;;;;5080366;28;20237;-76
2023/07/20 06:27:14;;;;;;;2.83;2.63;;;23.20;99.40;;;;;;5086567;28;20206;-75
2023/07/20 06:29:39;;;;;;;3.13;2.70;;;23.30;99.50;;;;;;5076496;28;20182;-76
2023/07/20 06:32:06;;;;;;;4.30;2.80;;;23.30;99.60;;;;;;5075647;28;20538;-77
2023/07/20 06:34:36;;;;;;;3.43;2.67;;;23.30;99.70;;;;;;5075389;28;20199;-76
2023/07/20 06:37:03;;;;;;;2.90;2.70;;;23.30;99.80;;;;;;5075526;28;20236;-78
2023/07/20 06:39:29;;;;;;;3.83;2.87;;;23.30;99.90;;;;;;5074533;28;20337;-79
2023/07/20 06:41:55;;;;;;;2.70;2.50;;;23.30;99.90;;;;;;5074587;28;20167;-76
2023/07/20 06:44:22;;;;;;;3.10;2.90;;;23.30;99.80;;;;;;5074119;28;20174;-77
2023/07/20 06:46:48;;;;;;;3.27;3.07;;;23.40;99.90;;;;;;5077241;28;20167;-76
2023/07/20 06:49:28;;;;;;;3.03;2.83;;;23.40;99.90;;;;;;5076354;28;20185;-76
2023/07/20 06:51:54;;;;;;;3.22;3.00;;;23.40;99.90;;;;;;5074631;28;20224;-78
2023/07/20 06:54:20;;;;;;;4.63;2.97;;;23.50;99.90;;;;;;5075430;28;20179;-77
2023/07/20 06:56:46;;;;;;;3.30;2.92;;;23.60;99.90;;;;;;5073565;28;20238;-76
2023/07/20 06:59:12;;;;;;;2.97;2.78;;;23.60;99.90;;;;;;5074309;28;20221;-77
2023/07/20 07:01:38;;;;;;;5.63;2.75;;;23.70;99.90;;;;;;5072066;28;20179;-79
2023/07/20 07:04:05;;;;;;;4.78;3.38;;;23.80;99.90;;;;;;5073805;28;20179;-78
2023/07/20 07:06:31;;;;;;;3.33;2.97;;;23.70;99.90;;;;;;5072934;28;20597;-77
2023/07/20 07:08:57;;;;;;;4.40;2.90;;;23.60;99.90;;;;;;5073423;28;20175;-77
2023/07/20 07:11:23;;;;;;;3.25;3.00;;;23.70;99.90;;;;;;5074198;28;20207;-78
2023/07/20 07:13:50;;;;;;;3.58;3.10;;;23.80;99.90;;;;;;5073553;28;20175;-77
2023/07/20 07:16:18;;;;;;;3.30;3.00;;;23.80;99.90;;;;;;5073835;28;20194;-77
2023/07/20 07:18:50;;;;;;;3.85;3.03;;;24.00;99.90;;;;;;5074429;28;20214;-79
2023/07/20 07:21:15;;;;;;;3.45;2.80;;;23.90;99.90;;;;;;5074714;28;20646;-78
2023/07/20 07:23:41;;;;;;;6.57;3.28;;;23.90;99.90;;;;;;5073732;28;20178;-78
2023/07/20 07:26:07;;;;;;;3.08;2.88;;;23.90;99.90;;;;;;5071754;28;20182;-76
2023/07/20 07:28:33;;;;;;;3.75;3.10;;;23.80;99.90;;;;;;5073578;28;20175;-76
2023/07/20 07:30:59;;;;;;;3.10;2.88;;;23.80;99.90;;;;;;5073913;28;20634;-76
2023/07/20 07:33:24;;;;;;;3.60;3.30;;;23.80;99.90;;;;;;5073249;28;20241;-76
2023/07/20 07:35:53;;;;;;;3.38;3.08;;;23.80;99.90;;;;;;5075299;28;20235;-78
2023/07/20 07:38:19;;;;;;;2.88;2.67;;;23.80;99.90;;;;;;5086225;28;20210;-76
2023/07/20 07:40:46;;;;;;;3.30;2.50;;;23.90;99.90;;;;;;5096791;28;20195;-78
2023/07/20 07:43:13;;;;;;;3.20;2.95;;;23.90;99.90;;;;;;5083173;28;20257;-77
2023/07/20 07:45:40;;;;;;;4.00;3.30;;;23.80;99.90;;;;;;5078674;28;20187;-78
2023/07/20 07:48:06;;;;;;;2.95;2.75;;;23.70;99.90;;;;;;5078909;28;20251;-77
2023/07/20 07:50:32;;;;;;;2.92;2.72;;;23.70;99.90;;;;;;5076205;28;20175;-76
2023/07/20 07:52:59;;;;;;;4.25;3.17;;;23.60;99.90;;;;;;5082427;28;20202;-79
2023/07/20 07:55:26;;;;;;;3.20;2.95;;;23.70;99.90;;;;;;5082396;28;20706;-79
2023/07/20 07:57:52;;;;;;;3.08;2.88;;;23.80;99.90;;;;;;5078000;28;20210;-77
2023/07/20 08:00:19;;;;;;;4.35;3.10;;;24.00;99.90;;;;;;5077683;28;20190;-76
2023/07/20 08:02:46;;;;;;;2.95;2.75;;;24.20;99.90;;;;;;5077729;28;20244;-76
2023/07/20 08:05:12;;;;;;;3.78;2.95;;;24.20;99.90;;;;;;5086230;28;20194;-78
2023/07/20 08:07:38;;;;;;;4.00;3.28;;;24.10;99.90;;;;;;5082251;28;20193;-77
2023/07/20 08:10:04;;;;;;;3.63;3.33;;;24.20;99.90;;;;;;5077494;28;20187;-76
2023/07/20 08:12:31;;;;;;;3.22;2.90;;;24.30;99.90;;;;;;5078520;28;20187;-77
2023/07/20 08:14:56;;;;;;;3.22;3.03;;;24.50;99.90;;;;;;5077813;28;20179;-75
2023/07/20 08:17:22;;;;;;;3.10;2.80;;;24.60;99.90;;;;;;5079404;28;20171;-77
2023/07/20 08:19:48;;;;;;;2.70;2.50;;;24.60;99.40;;;;;;5080638;28;20183;-79
2023/07/20 08:22:14;;;;;;;3.05;2.80;;;24.60;99.40;;;;;;5083064;28;20168;-78
2023/07/20 08:24:41;;;;;;;2.90;2.63;;;24.60;99.10;;;;;;5079528;28;20647;-80
2023/07/20 08:27:07;;;;;;;2.88;2.70;;;24.80;98.90;;;;;;5085578;28;20164;-76
2023/07/20 08:29:32;;;;;;;3.30;3.00;;;24.90;99.10;;;;;;5089492;28;20665;-77
2023/07/20 08:31:58;;;;;;;2.83;2.63;;;25.00;98.40;;;;;;5078804;28;20638;-75
2023/07/20 08:34:24;;;;;;;2.95;2.65;;;25.20;98.30;;;;;;5075163;28;20229;-75
2023/07/20 08:36:49;;;;;;;2.92;2.58;;;25.20;97.50;;;;;;5082866;28;20188;-75
2023/07/20 08:39:15;;;;;;;2.80;2.60;;;25.20;97.00;;;;;;5084465;28;20195;-78
2023/07/20 08:41:43;;;;;;;2.83;2.70;;;25.40;97.40;;;;;;5084300;28;20180;-76
2023/07/20 08:44:10;;;;;;;2.78;2.58;;;25.50;96.70;;;;;;5084208;28;20182;-75
2023/07/20 08:46:38;;;;;;;2.65;2.50;;;25.50;95.80;;;;;;5079331;28;20286;-75
2023/07/20 08:49:04;;;;;;;2.20;2.10;;;25.60;95.80;;;;;;5078421;28;20198;-78
2023/07/20 08:51:31;;;;;;;2.67;2.47;;;25.60;94.50;;;;;;5078568;28;20163;-78
2023/07/20 08:53:57;;;;;;;2.88;2.22;;;25.60;94.70;;;;;;5076044;28;20278;-77
2023/07/20 08:56:26;;;;;;;2.58;2.40;;;25.70;94.40;;;;;;5085087;28;20223;-75
2023/07/20 08:58:56;;;;;;;2.20;2.10;;;25.70;94.30;;;;;;5079078;28;20207;-78
2023/07/20 09:01:22;;;;;;;2.72;2.53;;;25.80;94.20;;;;;;5075887;28;20168;-75
2023/07/20 09:03:49;;;;;;;2.55;2.42;;;25.80;94.30;;;;;;5074699;28;20539;-75
2023/07/20 09:06:15;;;;;;;2.40;2.30;;;25.80;94.30;;;;;;5076709;28;20175;-75
2023/07/20 09:08:42;;;;;;;3.03;2.42;;;25.90;94.40;;;;;;5076697;28;20220;-73
2023/07/20 09:11:09;;;;;;;2.80;2.60;;;25.90;95.10;;;;;;5076766;28;20175;-74
2023/07/20 09:13:35;;;;;;;3.63;2.97;;;26.00;96.60;;;;;;5075525;28;20470;-76
2023/07/20 09:16:03;;;;;;;3.53;3.22;;;26.20;97.10;;;;;;5073798;28;20418;-73
2023/07/20 09:18:31;;;;;;;3.10;2.80;;;26.30;98.00;;;;;;5075046;28;20264;-74
2023/07/20 09:21:05;;;;;;;3.17;2.97;;;26.40;98.20;;;;;;5073296;28;20171;-74
2023/07/20 09:23:41;;;;;;;2.75;2.45;;;26.50;98.50;;;;;;5073894;28;20175;-77
2023/07/20 09:26:11;;;;;;;3.20;2.95;;;26.60;97.70;;;;;;5074514;28;20245;-77
2023/07/20 09:28:50;;;;;;;3.65;2.70;;;26.60;97.10;;;;;;5075272;28;20163;-76
2023/07/20 09:31:22;;;;;;;3.38;2.92;;;26.60;97.50;;;;;;5079654;28;20181;-74
2023/07/20 09:33:49;;;;;;;2.83;2.63;;;26.50;97.30;;;;;;5086178;28;20187;-75
2023/07/20 09:36:15;;;;;;;3.13;2.83;;;26.60;97.30;;;;;;5076067;28;20171;-77
2023/07/20 09:38:44;;;;;;;3.72;3.20;;;26.60;97.10;;;;;;5075939;28;20360;-77
2023/07/20 09:41:18;;;;;;;3.45;2.92;;;26.70;97.40;;;;;;5075523;28;20179;-78
2023/07/20 09:43:45;;;;;;;3.25;2.78;;;26.80;96.70;;;;;;5088037;28;20179;-78
2023/07/20 09:46:17;;;;;;;3.00;2.80;;;26.80;96.80;;;;;;5069761;28;20182;-78
2023/07/20 09:48:53;;;;;;;3.53;3.22;;;26.70;96.90;;;;;;5080554;28;20163;-76
2023/07/20 09:51:24;;;;;;;3.00;2.80;;;26.80;97.50;;;;;;5077597;28;20265;-77
2023/07/20 09:53:56;;;;;;;3.85;3.28;;;26.80;97.40;;;;;;5080746;28;20151;-76
2023/07/20 09:56:23;;;;;;;3.15;2.85;;;26.70;96.80;;;;;;5061774;28;20710;-76
2023/07/20 09:58:50;;;;;;;2.90;2.70;;;26.80;96.70;;;;;;5084741;28;20226;-77
2023/07/20 10:01:21;;;;;;;3.28;3.08;;;27.10;97.30;;;;;;5080614;28;20251;-77
2023/07/20 10:03:50;;;;;;;3.60;3.30;;;27.40;97.50;;;;;;5081366;28;20702;-78
2023/07/20 10:06:23;;;;;;;3.15;2.90;;;27.50;96.90;;;;;;5078915;28;20175;-76
2023/07/20 10:08:52;;;;;;;3.22;3.00;;;27.80;97.00;;;;;;5077347;28;20161;-76
2023/07/20 10:11:21;;;;;;;3.20;3.00;;;28.00;96.90;;;;;;5059670;28;20179;-76
2023/07/20 10:13:51;;;;;;;4.82;3.45;;;28.10;96.70;;;;;;5075319;28;20229;-75
2023/07/20 10:16:26;;;;;;;5.03;3.58;;;28.20;97.50;;;;;;5078346;28;20163;-76
2023/07/20 10:19:11;;;;;;;3.60;3.40;;;28.30;98.80;;;;;;5083892;28;20281;-77
2023/07/20 10:21:42;;;;;;;3.42;3.13;;;28.40;98.40;;;;;;5073746;28;20531;-76
2023/07/20 10:24:09;;;;;;;3.80;3.47;;;28.50;98.20;;;;;;5075824;28;20183;-76
2023/07/20 10:26:35;;;;;;;3.42;3.15;;;28.50;97.70;;;;;;5074823;28;20266;-76
2023/07/20 10:29:03;;;;;;;3.75;3.40;;;28.50;97.40;;;;;;5080947;28;20179;-77
2023/07/20 10:31:29;;;;;;;3.83;3.53;;;28.20;97.70;;;;;;5078508;28;20635;-77
2023/07/20 10:33:57;;;;;;;3.72;3.35;;;27.90;97.10;;;;;;5073565;28;20197;-76
2023/07/20 10:36:27;;;;;;;3.00;2.80;;;27.70;96.90;;;;;;5074906;28;20250;-78
2023/07/20 10:38:57;;;;;;;3.58;3.30;;;27.50;97.00;;;;;;5075175;28;20228;-77
2023/07/20 10:41:39;;;;;;;2.97;2.78;;;27.70;97.70;;;;;;5074576;28;20171;-77
2023/07/20 10:44:08;;;;;;;3.92;2.83;;;27.70;97.60;;;;;;5075245;28;20254;-77
2023/07/20 10:46:47;;;;;;;3.08;2.88;;;27.80;97.40;;;;;;5075128;28;20167;-78
2023/07/20 10:49:15;;;;;;;4.43;3.20;;;27.90;97.20;;;;;;5075406;28;20584;-77
2023/07/20 10:51:46;;;;;;;4.15;3.40;;;27.90;97.00;;;;;;5073289;28;20175;-77
2023/07/20 10:54:17;;;;;;;3.45;3.15;;;28.00;96.90;;;;;;5072979;28;20689;-78
2023/07/20 10:56:47;;;;;;;2.60;2.50;;;27.80;96.00;;;;;;5073586;28;20235;-76
2023/07/20 10:59:35;;;;;;;3.58;3.10;;;27.50;96.80;;;;;;5075142;28;20203;-77
2023/07/20 11:02:09;;;;;;;2.58;2.47;;;27.40;97.10;;;;;;5074748;28;20170;-80
2023/07/20 11:04:43;;;;;;;3.08;2.70;;;27.40;97.30;;;;;;5075045;28;20224;-77
2023/07/20 11:07:09;;;;;;;3.25;2.55;;;27.40;96.90;;;;;;5074530;28;20179;-77
2023/07/20 11:09:36;;;;;;;3.67;3.38;;;27.70;95.60;;;;;;5074188;28;20163;-76
2023/07/20 11:12:16;;;;;;;3.00;2.80;;;27.90;96.50;;;;;;5091347;28;20178;-78
2023/07/20 11:14:56;;;;;;;3.28;3.08;;;28.20;95.70;;;;;;5079649;28;20151;-76
2023/07/20 11:17:31;;;;;;;2.83;2.72;;;28.60;95.10;;;;;;5077773;28;20174;-77
2023/07/20 11:19:58;;;;;;;2.80;2.45;;;28.90;94.10;;;;;;5078177;28;20677;-78
2023/07/20 11:22:24;;;;;;;2.60;2.50;;;28.70;92.60;;;;;;5084412;28;20163;-76
2023/07/20 11:24:51;;;;;;;2.75;2.55;;;28.70;93.00;;;;;;5093444;28;20170;-78
2023/07/20 11:27:19;;;;;;;3.80;2.60;;;28.70;92.80;;;;;;5079471;28;20171;-76
2023/07/20 11:29:45;;;;;;;3.30;3.00;;;28.60;92.90;;;;;;5077639;28;20198;-78
2023/07/20 11:32:11;;;;;;;2.88;2.67;;;28.50;93.90;;;;;;5077811;28;20170;-77
2023/07/20 11:34:37;;;;;;;3.83;2.80;;;28.60;93.90;;;;;;5080313;28;20175;-77
2023/07/20 11:37:03;;;;;;;3.10;2.90;;;28.30;93.90;;;;;;5080217;28;20186;-77
2023/07/20 11:39:29;;;;;;;2.80;2.60;;;28.40;94.20;;;;;;5079762;28;20199;-76
2023/07/20 11:41:56;;;;;;;2.65;2.55;;;28.50;94.40;;;;;;5083543;28;20522;-76
2023/07/20 11:44:28;;;;;;;2.80;2.55;;;28.20;94.00;;;;;;5083071;28;20180;-76
2023/07/20 11:47:11;;;;;;;3.42;2.17;;;27.90;92.70;;;;;;5079586;28;20251;-77
2023/07/20 11:49:40;;;;;;;3.40;2.28;;;27.80;92.40;;;;;;5077397;28;20182;-78
2023/07/20 11:52:08;;;;;;;14.07;3.63;;;27.60;92.30;;;;;;5077304;28;20638;-77
2023/07/20 11:54:35;;;;;;;2.45;2.30;;;27.80;94.10;;;;;;5077194;28;20214;-78
2023/07/20 11:57:05;;;;;;;2.60;2.50;;;28.00;92.10;;;;;;5076808;28;20178;-78
2023/07/20 11:59:31;;;;;;;2.72;2.60;;;28.10;92.40;;;;;;5076501;28;20302;-77
2023/07/20 12:02:03;;;;;;;2.60;2.30;;;28.10;92.60;;;;;;5077369;28;20160;-76
2023/07/20 12:04:33;;;;;;;2.53;2.42;;;28.00;93.20;;;;;;5077136;28;20176;-76
2023/07/20 12:06:59;;;;;;;2.72;2.53;;;28.20;94.10;;;;;;5079100;28;20172;-78
2023/07/20 12:09:25;;;;;;;2.92;2.70;;;28.60;93.20;;;;;;5075707;28;20202;-77
2023/07/20 12:11:51;;;;;;;2.20;2.10;;;28.70;92.70;;;;;;5077068;28;20241;-75
2023/07/20 12:14:17;;;;;;;2.50;2.40;;;28.50;92.60;;;;;;5076446;28;20171;-77
2023/07/20 12:16:43;;;;;;;3.20;3.00;;;28.40;92.20;;;;;;5076132;28;20714;-75
2023/07/20 12:19:13;;;;;;;2.72;2.63;;;28.50;93.60;;;;;;5076491;28;20239;-77
2023/07/20 12:21:42;;;;;;;2.47;2.38;;;28.40;94.50;;;;;;5076332;28;20167;-78
2023/07/20 12:24:11;;;;;;;2.53;2.42;;;28.10;93.00;;;;;;5076743;28;20202;-77
2023/07/20 12:26:37;;;;;;;3.42;2.63;;;27.70;93.60;;;;;;5076899;28;20175;-76
2023/07/20 12:29:03;;;;;;;2.25;2.05;;;27.30;94.10;;;;;;5076445;28;20221;-76
2023/07/20 12:31:29;;;;;;;2.13;2.00;;;26.90;94.40;;;;;;5077360;28;20171;-75
2023/07/20 12:33:57;;;;;;;4.40;2.38;;;26.50;95.20;;;;;;5077697;28;20221;-78
2023/07/20 12:36:23;;;;;;;2.30;2.20;;;25.90;95.70;;;;;;5076072;28;20167;-78
2023/07/20 12:38:49;;;;;;;2.80;2.60;;;25.50;96.50;;;;;;5075537;28;20210;-77
2023/07/20 12:41:15;;;;;;;2.55;2.35;;;25.40;97.20;;;;;;5077191;28;20259;-76
2023/07/20 12:43:44;;;;;;;2.95;2.40;;;25.30;97.30;;;;;;5076945;28;20194;-78
2023/07/20 12:46:14;;;;;;;2.65;2.47;;;25.20;97.60;;;;;;5076465;28;20210;-76
2023/07/20 12:48:41;;;;;;;2.45;2.25;;;25.00;97.50;;;;;;5076653;28;20168;-76
2023/07/20 12:51:09;;;;;;;2.67;2.58;;;24.70;98.00;;;;;;5088533;28;20171;-78